sensor_id;sensor_type;location;lat;lon;timestamp;pressure;altitude;pressure_sealevel;temperature;humidity
48796;BME280;34607;48.520;-1.330;2024-02-15T12:02:03;99385.69;;;15.68;90.68
48796;BME280;34607;48.520;-1.330;2024-02-15T12:04:56;99384.94;;;15.62;91.81
48796;BME280;34607;48.520;-1.330;2024-02-15T12:07:40;99387.84;;;15.46;92.62
48796;BME280;34607;48.520;-1.330;2024-02-15T12:10:24;99382.97;;;15.28;93.76
48796;BME280;34607;48.520;-1.330;2024-02-15T12:13:09;99386.88;;;15.50;93.77
48796;BME280;34607;48.520;-1.330;2024-02-15T12:15:57;99374.78;;;15.46;92.82
48796;BME280;34607;48.520;-1.330;2024-02-15T12:18:44;99364.09;;;15.60;93.24
48796;BME280;34607;48.520;-1.330;2024-02-15T12:21:20;99365.59;;;15.72;92.74
48796;BME280;34607;48.520;-1.330;2024-02-15T12:23:49;99350.19;;;15.60;92.55
48796;BME280;34607;48.520;-1.330;2024-02-15T12:26:19;99367.47;;;15.65;92.23
48796;BME280;34607;48.520;-1.330;2024-02-15T12:28:50;99365.88;;;15.58;92.13
48796;BME280;34607;48.520;-1.330;2024-02-15T12:31:20;99367.22;;;15.34;93.03
48796;BME280;34607;48.520;-1.330;2024-02-15T12:33:59;99360.94;;;15.44;93.43
48796;BME280;34607;48.520;-1.330;2024-02-15T12:36:27;99366.81;;;15.54;93.64
48796;BME280;34607;48.520;-1.330;2024-02-15T12:39:02;99374.78;;;15.48;93.10
48796;BME280;34607;48.520;-1.330;2024-02-15T12:41:36;99372.28;;;15.40;93.59
48796;BME280;34607;48.520;-1.330;2024-02-15T12:44:03;99368.00;;;15.38;93.78
48796;BME280;34607;48.520;-1.330;2024-02-15T12:46:30;99356.59;;;15.43;93.83
48796;BME280;34607;48.520;-1.330;2024-02-15T12:49:27;99354.97;;;15.38;93.47
48796;BME280;34607;48.520;-1.330;2024-02-15T12:52:33;99349.88;;;15.30;93.81
48796;BME280;34607;48.520;-1.330;2024-02-15T12:55:10;99347.66;;;15.11;94.30
48796;BME280;34607;48.520;-1.330;2024-02-15T12:57:39;99352.63;;;15.24;95.20
48796;BME280;34607;48.520;-1.330;2024-02-15T13:00:09;99337.88;;;15.21;95.16
48796;BME280;34607;48.520;-1.330;2024-02-15T13:02:44;99346.69;;;15.15;95.31
48796;BME280;34607;48.520;-1.330;2024-02-15T13:05:13;99377.81;;;15.23;95.55
48796;BME280;34607;48.520;-1.330;2024-02-15T13:07:40;99373.44;;;15.27;95.87
48796;BME280;34607;48.520;-1.330;2024-02-15T13:10:08;99381.06;;;15.38;95.66
48796;BME280;34607;48.520;-1.330;2024-02-15T13:12:36;99379.22;;;15.43;95.16
48796;BME280;34607;48.520;-1.330;2024-02-15T13:15:04;99358.44;;;15.36;95.12
48796;BME280;34607;48.520;-1.330;2024-02-15T13:17:32;99354.75;;;15.48;95.08
48796;BME280;34607;48.520;-1.330;2024-02-15T13:20:00;99345.22;;;15.47;94.93
48796;BME280;34607;48.520;-1.330;2024-02-15T13:22:37;99339.22;;;15.42;95.04
48796;BME280;34607;48.520;-1.330;2024-02-15T13:25:06;99349.69;;;15.41;95.18
48796;BME280;34607;48.520;-1.330;2024-02-15T13:27:34;99343.69;;;15.37;95.82
48796;BME280;34607;48.520;-1.330;2024-02-15T13:30:02;99347.22;;;15.33;95.33
48796;BME280;34607;48.520;-1.330;2024-02-15T13:32:29;99341.09;;;15.35;95.64
48796;BME280;34607;48.520;-1.330;2024-02-15T13:34:56;99339.09;;;15.48;95.62
48796;BME280;34607;48.520;-1.330;2024-02-15T13:37:27;99331.97;;;15.57;95.08
48796;BME280;34607;48.520;-1.330;2024-02-15T13:39:55;99320.41;;;15.70;95.01
48796;BME280;34607;48.520;-1.330;2024-02-15T13:42:22;99306.94;;;15.48;94.31
48796;BME280;34607;48.520;-1.330;2024-02-15T13:44:49;99329.31;;;15.60;94.49
48796;BME280;34607;48.520;-1.330;2024-02-15T13:47:16;99324.19;;;15.53;94.49
48796;BME280;34607;48.520;-1.330;2024-02-15T13:49:43;99309.59;;;15.45;94.67
48796;BME280;34607;48.520;-1.330;2024-02-15T13:52:10;99357.09;;;15.61;94.29
48796;BME280;34607;48.520;-1.330;2024-02-15T13:54:38;99358.72;;;15.68;94.28
48796;BME280;34607;48.520;-1.330;2024-02-15T13:57:06;99361.34;;;15.68;93.81
48796;BME280;34607;48.520;-1.330;2024-02-15T13:59:34;99359.44;;;15.74;93.42
48796;BME280;34607;48.520;-1.330;2024-02-15T14:02:01;99355.97;;;15.74;93.35
48796;BME280;34607;48.520;-1.330;2024-02-15T14:04:30;99361.38;;;15.65;93.30
48796;BME280;34607;48.520;-1.330;2024-02-15T14:06:58;99357.88;;;15.66;93.75
48796;BME280;34607;48.520;-1.330;2024-02-15T14:09:25;99359.75;;;15.59;93.56
48796;BME280;34607;48.520;-1.330;2024-02-15T14:11:53;99365.94;;;15.53;93.93
48796;BME280;34607;48.520;-1.330;2024-02-15T14:14:22;99355.56;;;15.50;94.15
48796;BME280;34607;48.520;-1.330;2024-02-15T14:16:49;99345.91;;;15.55;94.35
48796;BME280;34607;48.520;-1.330;2024-02-15T14:19:16;99346.69;;;15.59;94.36
48796;BME280;34607;48.520;-1.330;2024-02-15T14:21:43;99354.59;;;15.58;94.11
48796;BME280;34607;48.520;-1.330;2024-02-15T14:24:11;99349.56;;;15.47;94.47
48796;BME280;34607;48.520;-1.330;2024-02-15T14:26:39;99351.16;;;15.54;94.56
48796;BME280;34607;48.520;-1.330;2024-02-15T14:29:06;99345.75;;;15.63;94.54
48796;BME280;34607;48.520;-1.330;2024-02-15T14:31:36;99336.06;;;15.70;94.14
48796;BME280;34607;48.520;-1.330;2024-02-15T14:34:26;99301.53;;;15.55;94.08
48796;BME280;34607;48.520;-1.330;2024-02-15T14:36:53;99332.44;;;15.77;94.34
48796;BME280;34607;48.520;-1.330;2024-02-15T14:39:20;99328.88;;;15.81;94.34
48796;BME280;34607;48.520;-1.330;2024-02-15T14:41:47;99332.13;;;15.93;94.34
48796;BME280;34607;48.520;-1.330;2024-02-15T14:44:14;99342.53;;;15.94;94.24
48796;BME280;34607;48.520;-1.330;2024-02-15T14:46:43;99322.47;;;15.96;94.40
48796;BME280;34607;48.520;-1.330;2024-02-15T14:49:10;99315.72;;;15.86;94.09
48796;BME280;34607;48.520;-1.330;2024-02-15T14:51:37;99331.19;;;15.95;94.31
48796;BME280;34607;48.520;-1.330;2024-02-15T14:54:05;99323.53;;;15.87;94.49
48796;BME280;34607;48.520;-1.330;2024-02-15T14:56:32;99314.88;;;15.85;94.52
48796;BME280;34607;48.520;-1.330;2024-02-15T14:58:59;99320.88;;;15.89;94.99
48796;BME280;34607;48.520;-1.330;2024-02-15T15:01:27;99289.88;;;15.73;95.10
48796;BME280;34607;48.520;-1.330;2024-02-15T15:03:57;99314.69;;;15.93;95.12
48796;BME280;34607;48.520;-1.330;2024-02-15T15:06:28;99308.63;;;15.93;95.43
48796;BME280;34607;48.520;-1.330;2024-02-15T15:09:13;99311.16;;;15.96;95.54
48796;BME280;34607;48.520;-1.330;2024-02-15T15:11:57;99306.28;;;15.80;95.37
48796;BME280;34607;48.520;-1.330;2024-02-15T15:14:42;99306.91;;;15.90;96.12
48796;BME280;34607;48.520;-1.330;2024-02-15T15:17:10;99308.47;;;15.99;95.86
48796;BME280;34607;48.520;-1.330;2024-02-15T15:19:40;99297.94;;;16.02;95.95
48796;BME280;34607;48.520;-1.330;2024-02-15T15:22:07;99286.81;;;15.94;96.49
48796;BME280;34607;48.520;-1.330;2024-02-15T15:24:34;99268.53;;;15.94;96.24
48796;BME280;34607;48.520;-1.330;2024-02-15T15:27:03;99286.97;;;15.87;96.58
48796;BME280;34607;48.520;-1.330;2024-02-15T15:29:32;99280.09;;;15.83;97.20
48796;BME280;34607;48.520;-1.330;2024-02-15T15:31:59;99247.34;;;15.68;97.09
48796;BME280;34607;48.520;-1.330;2024-02-15T15:34:26;99268.75;;;15.86;97.25
48796;BME280;34607;48.520;-1.330;2024-02-15T15:36:55;99274.84;;;15.85;97.24
48796;BME280;34607;48.520;-1.330;2024-02-15T15:39:22;99245.59;;;15.69;97.32
48796;BME280;34607;48.520;-1.330;2024-02-15T15:41:52;99275.50;;;15.95;96.77
48796;BME280;34607;48.520;-1.330;2024-02-15T15:44:20;99286.06;;;15.88;96.47
48796;BME280;34607;48.520;-1.330;2024-02-15T15:46:50;99283.56;;;15.85;95.43
48796;BME280;34607;48.520;-1.330;2024-02-15T15:49:17;99292.25;;;15.84;95.20
48796;BME280;34607;48.520;-1.330;2024-02-15T15:51:45;99286.16;;;15.85;95.36
48796;BME280;34607;48.520;-1.330;2024-02-15T15:54:14;99280.09;;;15.83;95.21
48796;BME280;34607;48.520;-1.330;2024-02-15T15:56:43;99286.16;;;15.85;95.34
48796;BME280;34607;48.520;-1.330;2024-02-15T15:59:10;99289.84;;;15.77;95.37
48796;BME280;34607;48.520;-1.330;2024-02-15T16:01:37;99286.31;;;15.78;95.23
48796;BME280;34607;48.520;-1.330;2024-02-15T16:04:06;99284.78;;;15.66;95.12
48796;BME280;34607;48.520;-1.330;2024-02-15T16:06:33;99276.06;;;15.68;95.41
48796;BME280;34607;48.520;-1.330;2024-02-15T16:09:00;99266.56;;;15.64;95.32
48796;BME280;34607;48.520;-1.330;2024-02-15T16:11:30;99273.47;;;15.67;95.09
48796;BME280;34607;48.520;-1.330;2024-02-15T16:13:58;99265.75;;;15.62;95.62
48796;BME280;34607;48.520;-1.330;2024-02-15T16:16:25;99272.72;;;15.62;95.91
48796;BME280;34607;48.520;-1.330;2024-02-15T16:18:52;99271.84;;;15.63;96.01
48796;BME280;34607;48.520;-1.330;2024-02-15T16:21:20;99260.00;;;15.46;96.43
48796;BME280;34607;48.520;-1.330;2024-02-15T16:23:47;99272.03;;;15.53;96.67
48796;BME280;34607;48.520;-1.330;2024-02-15T16:26:14;99270.31;;;15.52;96.77
48796;BME280;34607;48.520;-1.330;2024-02-15T16:28:43;99268.53;;;15.54;96.92
48796;BME280;34607;48.520;-1.330;2024-02-15T16:31:10;99266.81;;;15.53;96.91
48796;BME280;34607;48.520;-1.330;2024-02-15T16:33:37;99260.75;;;15.51;97.38
48796;BME280;34607;48.520;-1.330;2024-02-15T16:36:05;99259.06;;;15.49;97.57
48796;BME280;34607;48.520;-1.330;2024-02-15T16:38:32;99254.00;;;15.43;97.74
48796;BME280;34607;48.520;-1.330;2024-02-15T16:41:01;99246.16;;;15.43;98.00
48796;BME280;34607;48.520;-1.330;2024-02-15T16:43:29;99253.00;;;15.48;98.03
48796;BME280;34607;48.520;-1.330;2024-02-15T16:45:58;99250.59;;;15.39;98.26
48796;BME280;34607;48.520;-1.330;2024-02-15T16:48:25;99265.44;;;15.37;98.11
48796;BME280;34607;48.520;-1.330;2024-02-15T16:50:53;99260.28;;;15.34;98.25
48796;BME280;34607;48.520;-1.330;2024-02-15T16:53:21;99275.97;;;15.31;98.49
48796;BME280;34607;48.520;-1.330;2024-02-15T16:55:48;99274.25;;;15.30;98.22
48796;BME280;34607;48.520;-1.330;2024-02-15T16:58:15;99255.38;;;15.19;97.93
48796;BME280;34607;48.520;-1.330;2024-02-15T17:00:45;99258.63;;;15.28;97.75
48796;BME280;34607;48.520;-1.330;2024-02-15T17:03:14;99248.25;;;15.27;97.30
48796;BME280;34607;48.520;-1.330;2024-02-15T17:05:42;99255.25;;;15.23;97.19
48796;BME280;34607;48.520;-1.330;2024-02-15T17:08:09;99240.53;;;15.21;97.28
48796;BME280;34607;48.520;-1.330;2024-02-15T17:10:36;99251.00;;;15.19;97.30
48796;BME280;34607;48.520;-1.330;2024-02-15T17:13:03;99239.78;;;15.15;97.22
48796;BME280;34607;48.520;-1.330;2024-02-15T17:15:31;99230.34;;;15.10;97.47
48796;BME280;34607;48.520;-1.330;2024-02-15T17:18:00;99241.72;;;15.04;97.56
48796;BME280;34607;48.520;-1.330;2024-02-15T17:20:28;99235.88;;;14.93;97.65
48796;BME280;34607;48.520;-1.330;2024-02-15T17:22:55;99236.69;;;14.95;97.72
48796;BME280;34607;48.520;-1.330;2024-02-15T17:25:23;99228.97;;;14.90;97.78
48796;BME280;34607;48.520;-1.330;2024-02-15T17:27:50;99233.34;;;14.88;97.90
48796;BME280;34607;48.520;-1.330;2024-02-15T17:30:18;99224.75;;;14.85;98.10
48796;BME280;34607;48.520;-1.330;2024-02-15T17:32:45;99226.56;;;14.79;98.37
48796;BME280;34607;48.520;-1.330;2024-02-15T17:35:12;99225.75;;;14.77;98.45
48796;BME280;34607;48.520;-1.330;2024-02-15T17:37:43;99226.69;;;14.73;98.49
48796;BME280;34607;48.520;-1.330;2024-02-15T17:40:11;99228.50;;;14.68;98.92
48796;BME280;34607;48.520;-1.330;2024-02-15T17:42:40;99232.00;;;14.69;98.81
48796;BME280;34607;48.520;-1.330;2024-02-15T17:45:09;99217.47;;;14.54;99.02
48796;BME280;34607;48.520;-1.330;2024-02-15T17:47:41;99228.69;;;14.57;99.27
48796;BME280;34607;48.520;-1.330;2024-02-15T17:50:11;99213.91;;;14.58;99.40
48796;BME280;34607;48.520;-1.330;2024-02-15T17:52:39;99220.03;;;14.58;99.50
48796;BME280;34607;48.520;-1.330;2024-02-15T17:55:08;99215.66;;;14.57;99.41
48796;BME280;34607;48.520;-1.330;2024-02-15T17:57:36;99209.09;;;14.36;100.00
48796;BME280;34607;48.520;-1.330;2024-02-15T18:00:04;99227.06;;;14.52;100.00
48796;BME280;34607;48.520;-1.330;2024-02-15T18:02:39;99224.53;;;14.46;100.00
48796;BME280;34607;48.520;-1.330;2024-02-15T18:05:07;99230.59;;;14.46;100.00
48796;BME280;34607;48.520;-1.330;2024-02-15T18:07:36;99226.34;;;14.42;100.00
48796;BME280;34607;48.520;-1.330;2024-02-15T18:10:05;99227.31;;;14.36;100.00
48796;BME280;34607;48.520;-1.330;2024-02-15T18:12:38;99230.00;;;14.32;100.00
48796;BME280;34607;48.520;-1.330;2024-02-15T18:15:06;99222.16;;;14.33;100.00
48796;BME280;34607;48.520;-1.330;2024-02-15T18:17:37;99229.16;;;14.31;100.00
48796;BME280;34607;48.520;-1.330;2024-02-15T18:20:07;99236.06;;;14.31;100.00
48796;BME280;34607;48.520;-1.330;2024-02-15T18:22:37;99237.88;;;14.27;100.00
48796;BME280;34607;48.520;-1.330;2024-02-15T18:25:06;99237.88;;;14.27;100.00
48796;BME280;34607;48.520;-1.330;2024-02-15T18:27:34;99242.28;;;14.23;100.00
48796;BME280;34607;48.520;-1.330;2024-02-15T18:30:04;99226.63;;;14.27;100.00
48796;BME280;34607;48.520;-1.330;2024-02-15T18:32:31;99234.47;;;14.23;100.00
48796;BME280;34607;48.520;-1.330;2024-02-15T18:35:01;99237.97;;;14.24;100.00
48796;BME280;34607;48.520;-1.330;2024-02-15T18:37:31;99245.75;;;14.24;100.00
48796;BME280;34607;48.520;-1.330;2024-02-15T18:39:58;99244.00;;;14.24;100.00
48796;BME280;34607;48.520;-1.330;2024-02-15T18:42:26;99247.47;;;14.25;100.00
48796;BME280;34607;48.520;-1.330;2024-02-15T18:44:53;99247.44;;;14.27;100.00
48796;BME280;34607;48.520;-1.330;2024-02-15T18:47:22;99265.69;;;14.25;100.00
48796;BME280;34607;48.520;-1.330;2024-02-15T18:49:49;99250.03;;;14.28;100.00
48796;BME280;34607;48.520;-1.330;2024-02-15T18:52:16;99250.88;;;14.29;100.00
48796;BME280;34607;48.520;-1.330;2024-02-15T18:54:43;99241.38;;;14.26;100.00
48796;BME280;34607;48.520;-1.330;2024-02-15T18:57:10;99246.63;;;14.23;100.00
48796;BME280;34607;48.520;-1.330;2024-02-15T18:59:38;99252.69;;;14.23;100.00
48796;BME280;34607;48.520;-1.330;2024-02-15T19:02:05;99201.03;;;14.00;100.00
48796;BME280;34607;48.520;-1.330;2024-02-15T19:04:34;99232.84;;;14.18;100.00
48796;BME280;34607;48.520;-1.330;2024-02-15T19:07:03;99239.78;;;14.19;100.00
48796;BME280;34607;48.520;-1.330;2024-02-15T19:09:31;99246.66;;;14.21;100.00
48796;BME280;34607;48.520;-1.330;2024-02-15T19:11:58;99237.97;;;14.24;100.00
48796;BME280;34607;48.520;-1.330;2024-02-15T19:14:27;99228.47;;;14.18;100.00
48796;BME280;34607;48.520;-1.330;2024-02-15T19:16:54;99227.63;;;14.18;100.00
48796;BME280;34607;48.520;-1.330;2024-02-15T19:19:21;99234.59;;;14.16;100.00
48796;BME280;34607;48.520;-1.330;2024-02-15T19:21:49;99232.00;;;14.16;100.00
48796;BME280;34607;48.520;-1.330;2024-02-15T19:24:17;99232.84;;;14.16;100.00
48796;BME280;34607;48.520;-1.330;2024-02-15T19:26:44;99236.31;;;14.17;100.00
48796;BME280;34607;48.520;-1.330;2024-02-15T19:29:12;99238.09;;;14.15;100.00
48796;BME280;34607;48.520;-1.330;2024-02-15T19:31:39;99233.72;;;14.17;100.00
48796;BME280;34607;48.520;-1.330;2024-02-15T19:34:07;99176.16;;;13.81;99.91
48796;BME280;34607;48.520;-1.330;2024-02-15T19:36:34;99227.69;;;14.13;99.77
48796;BME280;34607;48.520;-1.330;2024-02-15T19:39:04;99225.03;;;14.16;99.75
48796;BME280;34607;48.520;-1.330;2024-02-15T19:41:35;99232.88;;;14.15;99.75
48796;BME280;34607;48.520;-1.330;2024-02-15T19:44:04;99231.09;;;14.17;99.44
48796;BME280;34607;48.520;-1.330;2024-02-15T19:46:31;99203.50;;;14.07;99.38
48796;BME280;34607;48.520;-1.330;2024-02-15T19:48:58;99223.28;;;14.17;99.11
48796;BME280;34607;48.520;-1.330;2024-02-15T19:51:26;99220.66;;;14.20;99.24
48796;BME280;34607;48.520;-1.330;2024-02-15T19:53:54;99221.59;;;14.16;99.01
48796;BME280;34607;48.520;-1.330;2024-02-15T19:56:22;99227.66;;;14.15;99.15
48796;BME280;34607;48.520;-1.330;2024-02-15T19:58:55;99218.09;;;14.15;99.15
48796;BME280;34607;48.520;-1.330;2024-02-15T20:01:23;99205.28;;;14.04;99.03
48796;BME280;34607;48.520;-1.330;2024-02-15T20:03:52;99200.19;;;13.98;99.05
48796;BME280;34607;48.520;-1.330;2024-02-15T20:06:19;99227.81;;;14.07;99.31
48796;BME280;34607;48.520;-1.330;2024-02-15T20:08:48;99224.31;;;14.07;99.09
48796;BME280;34607;48.520;-1.330;2024-02-15T20:11:16;99220.03;;;14.05;98.91
48796;BME280;34607;48.520;-1.330;2024-02-15T20:13:45;99216.59;;;14.03;99.13
48796;BME280;34607;48.520;-1.330;2024-02-15T20:16:12;99222.66;;;14.02;99.18
48796;BME280;34607;48.520;-1.330;2024-02-15T20:18:39;99166.00;;;13.65;99.08
48796;BME280;34607;48.520;-1.330;2024-02-15T20:21:07;99226.16;;;14.01;98.82
48796;BME280;34607;48.520;-1.330;2024-02-15T20:23:38;99219.25;;;14.00;98.39
48796;BME280;34607;48.520;-1.330;2024-02-15T20:26:06;99211.53;;;13.93;98.27
48796;BME280;34607;48.520;-1.330;2024-02-15T20:28:33;99229.66;;;14.00;98.12
48796;BME280;34607;48.520;-1.330;2024-02-15T20:31:02;99208.88;;;13.97;97.77
48796;BME280;34607;48.520;-1.330;2024-02-15T20:33:29;99213.22;;;13.98;97.74
48796;BME280;34607;48.520;-1.330;2024-02-15T20:35:56;99221.84;;;14.00;97.95
48796;BME280;34607;48.520;-1.330;2024-02-15T20:38:23;99226.22;;;13.98;97.95
48796;BME280;34607;48.520;-1.330;2024-02-15T20:40:54;99229.69;;;13.97;98.13
48796;BME280;34607;48.520;-1.330;2024-02-15T20:43:21;99225.34;;;13.98;98.18
48796;BME280;34607;48.520;-1.330;2024-02-15T20:45:48;99225.31;;;13.99;98.06
48796;BME280;34607;48.520;-1.330;2024-02-15T20:48:17;99212.53;;;13.84;98.06
48796;BME280;34607;48.520;-1.330;2024-02-15T20:50:44;99218.50;;;13.91;98.33
48796;BME280;34607;48.520;-1.330;2024-02-15T20:53:11;99227.25;;;13.88;98.37
48796;BME280;34607;48.520;-1.330;2024-02-15T20:55:38;99225.50;;;13.87;98.26
48796;BME280;34607;48.520;-1.330;2024-02-15T20:58:05;99214.22;;;13.88;98.51
48796;BME280;34607;48.520;-1.330;2024-02-15T21:00:32;99216.88;;;13.85;98.66
48796;BME280;34607;48.520;-1.330;2024-02-15T21:02:59;99203.16;;;13.74;98.84
48796;BME280;34607;48.520;-1.330;2024-02-15T21:05:29;99234.25;;;13.83;98.58
48796;BME280;34607;48.520;-1.330;2024-02-15T21:07:56;99218.59;;;13.84;98.82
48796;BME280;34607;48.520;-1.330;2024-02-15T21:10:24;99222.19;;;13.76;99.11
48796;BME280;34607;48.520;-1.330;2024-02-15T21:12:52;99218.72;;;13.77;99.29
48796;BME280;34607;48.520;-1.330;2024-02-15T21:15:20;99222.94;;;13.84;99.76
48796;BME280;34607;48.520;-1.330;2024-02-15T21:17:47;99226.44;;;13.83;99.58
48796;BME280;34607;48.520;-1.330;2024-02-15T21:20:15;99221.19;;;13.84;99.77
48796;BME280;34607;48.520;-1.330;2024-02-15T21:22:44;99217.78;;;13.81;100.00
48796;BME280;34607;48.520;-1.330;2024-02-15T21:25:15;99217.78;;;13.81;99.99
48796;BME280;34607;48.520;-1.330;2024-02-15T21:27:42;99225.53;;;13.85;100.00
48796;BME280;34607;48.520;-1.330;2024-02-15T21:30:10;99230.75;;;13.84;100.00
48796;BME280;34607;48.520;-1.330;2024-02-15T21:32:37;99222.94;;;13.84;100.00
48796;BME280;34607;48.520;-1.330;2024-02-15T21:35:04;99239.53;;;13.78;100.00
48796;BME280;34607;48.520;-1.330;2024-02-15T21:37:32;99205.78;;;13.71;100.00
48796;BME280;34607;48.520;-1.330;2024-02-15T21:40:00;99236.97;;;13.75;100.00
48796;BME280;34607;48.520;-1.330;2024-02-15T21:42:30;99225.69;;;13.75;100.00
48796;BME280;34607;48.520;-1.330;2024-02-15T21:44:59;99224.81;;;13.76;100.00
48796;BME280;34607;48.520;-1.330;2024-02-15T21:47:26;99231.75;;;13.77;100.00
48796;BME280;34607;48.520;-1.330;2024-02-15T21:49:53;99249.13;;;13.75;100.00
48796;BME280;34607;48.520;-1.330;2024-02-15T21:52:20;99235.28;;;13.73;100.00
48796;BME280;34607;48.520;-1.330;2024-02-15T21:54:47;99238.78;;;13.68;100.00
48796;BME280;34607;48.520;-1.330;2024-02-15T21:57:16;99223.31;;;13.59;100.00
48796;BME280;34607;48.520;-1.330;2024-02-15T21:59:43;99244.03;;;13.64;100.00
48796;BME280;34607;48.520;-1.330;2024-02-15T22:02:10;99246.72;;;13.59;100.00
48796;BME280;34607;48.520;-1.330;2024-02-15T22:04:37;99251.91;;;13.61;100.00
48796;BME280;34607;48.520;-1.330;2024-02-15T22:07:05;99247.59;;;13.58;100.00
48796;BME280;34607;48.520;-1.330;2024-02-15T22:09:32;99248.56;;;13.51;100.00
48796;BME280;34607;48.520;-1.330;2024-02-15T22:12:01;99250.34;;;13.49;100.00
48796;BME280;34607;48.520;-1.330;2024-02-15T22:14:29;99259.94;;;13.44;100.00
48796;BME280;34607;48.520;-1.330;2024-02-15T22:16:56;99271.25;;;13.40;100.00
48796;BME280;34607;48.520;-1.330;2024-02-15T22:19:23;99246.13;;;13.39;100.00
